Flight Track Log - Related Links

Times and Time Zones

All times are in EDT time to prevent confusion due to time zone crossing. See the EJA929 flight status page for this flight to view local times or setup timezone preferences in your user account.

Time Position Orientation Groundspeed Altitude Reporting Facility
EDT Latitude Longitude Course Direction KTS MPH feet Rate Location/Type
Sun 10:49:42 AM 30.4317 -85.7136 North 285 328 7,600  Level Jacksonville Center
Sun 10:50:42 AM 30.5069 -85.7014 North 294 338 10,500 2,150 Climbing Jacksonville Center
Sun 10:51:42 AM 30.5992 -85.6847 North 328 377 11,900 1,400 Climbing Jacksonville Center
Sun 10:52:42 AM 30.7083 -85.6639 North 356 410 13,300 1,450 Climbing Jacksonville Center
Sun 10:53:42 AM 30.8194 -85.6406 10° North 388 447 14,800 1,550 Climbing Jacksonville Center
Sun 10:54:42 AM 30.9347 -85.6197 North 407 468 16,400 1,550 Climbing Jacksonville Center
Sun 10:55:42 AM 31.0519 -85.5964 10° North 413 475 17,900 1,400 Climbing Jacksonville Center
Sun 10:56:42 AM 31.1714 -85.5756 North 424 488 19,200 1,207 Climbing Jacksonville Center
Sun 10:58:36 AM 31.3953 -85.5325 North 441 507 21,400 1,241 Climbing Atlanta Center
Sun 10:59:36 AM 31.5189 -85.5078 10° North 447 514 22,800 1,400 Climbing Atlanta Center
Sun 11:00:36 AM 31.6631 -85.4783 10° North 466 536 24,200 1,200 Climbing Atlanta Center
Sun 11:01:36 AM 31.7950 -85.4511 10° North 471 542 25,200 1,200 Climbing Atlanta Center
Sun 11:02:36 AM 31.9289 -85.4264 North 476 548 26,600 1,200 Climbing Atlanta Center
Sun 11:03:36 AM 32.0669 -85.3992 North 488 562 27,600 1,050 Climbing Atlanta Center
Sun 11:04:36 AM 32.2050 -85.3717 10° North 488 562 28,700 2,050 Climbing Atlanta Center
Sun 11:05:36 AM 32.3367 -85.3442 10° North 488 562 31,700 2,400 Climbing Atlanta Center
Sun 11:06:36 AM 32.4642 -85.3189 North 482 555 33,500 1,300 Climbing Atlanta Center
Sun 11:07:36 AM 32.6003 -85.2939 North 482 555 34,300 850 Climbing Atlanta Center
Sun 11:08:36 AM 32.7403 -85.2636 10° North 494 568 35,200 950 Climbing Atlanta Center
Sun 11:09:36 AM 32.8889 -85.2361 North 514 592 36,200 900 Climbing Atlanta Center
Sun 11:10:36 AM 33.0456 -85.2061 North 536 617 37,000 400 Climbing Atlanta Center
Sun 11:11:36 AM 33.2022 -85.2008 North 561 646 37,000  Level Atlanta Center
Sun 11:12:36 AM 33.3631 -85.1881 North 577 664 37,000  Level Atlanta Center
Sun 11:13:36 AM 33.5219 -85.1750 North 577 664 37,000  Level Atlanta Center
Sun 11:14:36 AM 33.6681 -85.1619 North 577 664 37,000  Level Atlanta Center
Sun 11:15:36 AM 33.8311 -85.1492 North 577 664 37,000  Level Atlanta Center
Sun 11:16:36 AM 33.9939 -85.1361 North 577 664 37,000  Level Atlanta Center
Sun 11:17:36 AM 34.1547 -85.1283 North 577 664 37,000  Level Atlanta Center
Sun 11:18:36 AM 34.3364 -85.1281 360° North 577 664 37,000  Level Atlanta Center
Sun 11:19:36 AM 34.4969 -85.1353 358° North 577 664 37,000  Level Atlanta Center
Sun 11:20:36 AM 34.6597 -85.1422 358° North 577 664 37,000 -50 Level Atlanta Center
Sun 11:21:36 AM 34.8203 -85.1494 358° North 569 655 36,900 -800 Descending Atlanta Center
Sun 11:22:36 AM 34.9850 -85.1542 359° North 575 662 35,400 -1,450 Descending Atlanta Center
Sun 11:23:36 AM 35.1481 -85.1286 North 585 673 34,000 -700 Descending Atlanta Center
Sun 11:24:36 AM 35.3111 -85.1000 North 591 680 34,000  Level Atlanta Center
Sun 11:25:36 AM 35.4742 -85.0717 North 591 680 34,000  Level Atlanta Center
Sun 11:26:36 AM 35.6350 -85.0428 North 596 686 34,000 -1,187 Level Atlanta Center
Sun 11:28:43 AM 35.9767 -84.9819 North 608 700 30,300 -2,063 Descending Indianapolis Center
Sun 11:29:45 AM 36.1386 -84.9525 North 587 676 27,500 -2,565 Descending Indianapolis Center
Sun 11:30:47 AM 36.2908 -84.9253 North 560 644 25,000 -1,707 Descending Indianapolis Center
Sun 11:31:48 AM 36.4328 -84.8994 North 523 602 24,000 -732 Descending Indianapolis Center
Sun 11:32:50 AM 36.6000 -84.8697 North 507 583 23,500 -1,452 Descending Indianapolis Center
Sun 11:33:52 AM 36.7292 -84.8472 North 478 550 21,000 -2,439 Descending Indianapolis Center
Sun 11:34:53 AM 36.8625 -84.8225 North 481 554 18,500 -2,146 Descending Indianapolis Center
Sun 11:35:55 AM 36.9853 -84.8011 North 450 518 16,600 -2,098 Descending Indianapolis Center
Sun 11:36:56 AM 37.1081 -84.7783 North 424 488 14,200 -2,244 Descending Indianapolis Center
Sun 11:37:58 AM 37.2225 -84.7583 North 416 479 12,000 -1,742 Descending Indianapolis Center
Sun 11:39:00 AM 37.3211 -84.7394 North 357 411 10,600 -1,317 Descending Indianapolis Center
Sun 11:40:01 AM 37.4056 -84.7247 North 314 361 9,300 -1,463 Descending Indianapolis Center
Sun 11:41:03 AM 37.4842 -84.7103 North 293 337 7,600 -1,113 Descending Indianapolis Center
Sun 11:42:05 AM 37.5569 -84.7267 350° North 266 306 7,000 -439 Descending Indianapolis Center
Sun 11:43:06 AM 37.6406 -84.7561 344° North 266 306 6,700 -829 Descending Indianapolis Center
Sun 11:44:08 AM 37.7150 -84.7775 347° North 271 312 5,300 -1,171 Descending Indianapolis Center
Sun 11:45:09 AM 37.7886 -84.7822 357° North 266 306 4,300 -1,024 Descending Indianapolis Center
Sun 11:46:11 AM 37.8597 -84.7547 17° North 268 308 3,200 -871 Descending Indianapolis Center
Sun 11:47:13 AM 37.9275 -84.7275 18° North 263 303 2,500 -293 Descending Indianapolis Center
Sun 11:48:14 AM 37.9717 -84.6794 41° Northeast 229 264 2,600 -195 Climbing Indianapolis Center
Sun 11:49:16 AM 38.0061 -84.6386 43° Northeast 212 244 2,100 -484 Descending Indianapolis Center
Sun 11:51:00 AM 38.0333 -84.6000 15° North  Level FlightAware Approximate
Sun 11:58:00 AM 38.0368 -84.6086 15° North  Level Estimated
Sun 11:59:00 AM 38.0368 -84.6086 15° North  Level Estimated

Login

Don't have an account? Register now (free) for customized features, flight alerts, and more!